createdAt,value
2023-03-20T00:02:38.613Z,73.72
2023-03-20T00:07:45.676Z,63.00
2023-03-20T00:12:53.960Z,63.57
2023-03-20T00:18:01.545Z,63.50
2023-03-20T00:23:08.917Z,61.90
2023-03-20T00:28:41.425Z,62.30
2023-03-20T00:33:48.099Z,62.90
2023-03-20T00:38:56.629Z,77.50
2023-03-20T00:44:22.967Z,73.63
2023-03-20T00:49:34.695Z,64.90
2023-03-20T00:54:41.476Z,64.22
2023-03-20T01:00:16.701Z,67.10
2023-03-20T01:05:23.823Z,64.67
2023-03-20T01:10:33.487Z,69.23
2023-03-20T01:15:42.495Z,70.67
2023-03-20T01:20:49.983Z,64.43
2023-03-20T01:25:57.395Z,62.38
2023-03-20T01:31:04.196Z,62.40
2023-03-20T01:36:17.156Z,61.48
2023-03-20T01:41:28.013Z,61.30
2023-03-20T01:46:37.264Z,62.62
2023-03-20T01:51:44.566Z,66.37
2023-03-20T01:57:13.896Z,65.03
2023-03-20T02:02:28.039Z,75.07
2023-03-20T02:07:36.891Z,77.50
2023-03-20T02:12:45.321Z,72.87
2023-03-20T02:17:54.984Z,74.00
2023-03-20T02:23:48.910Z,71.00
2023-03-20T02:29:09.231Z,62.83
2023-03-20T02:34:21.094Z,60.73
2023-03-20T02:39:50.306Z,59.07
2023-03-20T02:45:20.154Z,59.17
2023-03-20T02:51:00.621Z,58.50
2023-03-20T02:56:20.929Z,58.73
2023-03-20T03:01:39.350Z,58.57
2023-03-20T03:06:49.905Z,64.53
2023-03-20T03:12:10.432Z,69.40
2023-03-20T03:17:19.814Z,62.10
2023-03-20T03:22:28.439Z,60.67
2023-03-20T03:27:52.166Z,60.38
2023-03-20T03:33:18.064Z,63.90
2023-03-20T03:38:53.532Z,63.43
2023-03-20T03:44:23.026Z,62.47
2023-03-20T03:49:36.645Z,59.90
2023-03-20T03:54:50.031Z,61.58
2023-03-20T03:59:58.793Z,67.93
2023-03-20T04:05:08.957Z,69.77
2023-03-20T04:10:17.678Z,71.40
2023-03-20T04:15:24.697Z,67.00
2023-03-20T04:20:32.076Z,66.33
2023-03-20T04:25:39.871Z,67.55
2023-03-20T04:30:49.104Z,67.20
2023-03-20T04:35:56.543Z,64.03
2023-03-20T04:41:03.896Z,61.17
2023-03-20T04:46:10.788Z,59.97
2023-03-20T04:51:17.577Z,59.57
2023-03-20T04:56:24.437Z,61.18
2023-03-20T05:01:31.720Z,61.43
2023-03-20T05:06:38.886Z,59.40
2023-03-20T05:11:47.700Z,58.73
2023-03-20T05:16:54.398Z,60.37
2023-03-20T05:22:01.544Z,70.83
2023-03-20T05:27:08.602Z,65.43
2023-03-20T05:32:15.851Z,62.90
2023-03-20T05:37:23.018Z,63.43
2023-03-20T05:42:30.350Z,65.17
2023-03-20T05:47:38.614Z,62.00
2023-03-20T05:52:50.555Z,61.37
2023-03-20T05:57:57.455Z,61.00
2023-03-20T06:03:04.836Z,62.30
2023-03-20T06:08:11.524Z,67.33
2023-03-20T06:18:24.781Z,83.10
2023-03-20T06:23:31.766Z,89.70
2023-03-20T06:28:38.331Z,68.20
2023-03-20T06:33:45.715Z,81.60
2023-03-20T06:38:52.920Z,107.40
2023-03-20T06:44:00.423Z,103.78
2023-03-20T06:49:07.741Z,93.93
2023-03-20T06:54:15.056Z,98.00
2023-03-20T06:59:21.582Z,84.77
2023-03-20T07:04:29.712Z,82.90
2023-03-20T07:09:37.282Z,94.00
2023-03-20T07:14:45.122Z,87.75
2023-03-20T07:19:53.380Z,66.37
2023-03-20T07:25:00.910Z,67.87
2023-03-20T07:30:09.826Z,68.90
2023-03-20T07:35:17.281Z,59.97
2023-03-20T07:40:30.095Z,66.17
2023-03-20T07:45:37.833Z,59.40
2023-03-20T07:50:45.037Z,62.53
2023-03-20T07:55:51.943Z,64.03
2023-03-20T08:01:00.248Z,67.30
2023-03-20T08:06:09.242Z,98.57
2023-03-20T08:11:16.588Z,90.83
2023-03-20T08:16:23.942Z,69.67
2023-03-20T08:21:33.843Z,67.13
2023-03-20T08:26:40.768Z,63.08
2023-03-20T08:31:48.407Z,64.23
2023-03-20T08:36:56.203Z,68.30
2023-03-20T08:42:03.331Z,64.87
2023-03-20T08:52:17.326Z,62.62
2023-03-20T08:57:24.022Z,62.60
2023-03-20T09:02:31.345Z,66.13
2023-03-20T09:07:38.292Z,63.07
2023-03-20T09:12:45.225Z,59.93
2023-03-20T09:17:52.948Z,56.97
2023-03-20T09:23:00.032Z,57.67
2023-03-20T09:28:07.799Z,57.83
2023-03-20T09:43:57.839Z,57.38
2023-03-20T09:49:15.329Z,57.37
2023-03-20T09:54:53.261Z,57.90
2023-03-20T09:59:47.637Z,58.57
2023-03-20T10:04:56.565Z,59.53
2023-03-20T10:10:03.581Z,61.30
2023-03-20T10:15:41.462Z,61.50
2023-03-20T10:20:55.955Z,60.77
2023-03-20T10:26:09.710Z,59.47
2023-03-20T10:31:50.128Z,62.36
2023-03-20T10:37:16.721Z,60.90
2023-03-20T10:42:31.986Z,59.67
2023-03-20T10:47:43.010Z,60.43
2023-03-20T10:52:53.519Z,61.05
2023-03-20T10:58:10.669Z,61.33
2023-03-20T11:03:30.688Z,60.90
2023-03-20T11:08:43.756Z,60.37
2023-03-20T11:13:50.965Z,59.40
2023-03-20T11:18:57.363Z,58.40
2023-03-20T11:24:04.647Z,60.90
2023-03-20T11:29:20.570Z,59.08
2023-03-20T11:34:29.421Z,61.00
2023-03-20T11:39:37.565Z,58.83
2023-03-20T11:44:44.224Z,61.30
2023-03-20T11:50:01.771Z,59.00
2023-03-20T11:55:27.596Z,60.20
2023-03-20T12:00:41.457Z,60.00
2023-03-20T12:05:48.088Z,60.37
2023-03-20T12:10:59.573Z,61.70
2023-03-20T12:16:10.325Z,61.47
2023-03-20T12:21:33.610Z,60.96
2023-03-20T12:27:20.287Z,60.43
2023-03-20T12:32:42.709Z,58.95
2023-03-20T12:37:49.058Z,58.50
2023-03-20T12:48:44.447Z,56.85
2023-03-20T12:54:04.080Z,58.07
2023-03-20T12:59:19.333Z,58.58
2023-03-20T13:04:57.092Z,57.80
2023-03-20T13:10:21.651Z,58.53
2023-03-20T13:15:33.166Z,60.37
2023-03-20T13:20:52.836Z,60.43
2023-03-20T13:26:24.777Z,60.10
2023-03-20T13:31:48.202Z,60.00
2023-03-20T13:37:24.415Z,60.47
2023-03-20T13:42:39.383Z,57.45
2023-03-20T13:47:48.849Z,55.90
2023-03-20T13:53:03.033Z,55.30
2023-03-20T13:58:33.799Z,55.47
2023-03-20T14:03:48.601Z,55.87
2023-03-20T14:08:58.250Z,55.57
2023-03-20T14:14:33.593Z,56.67
2023-03-20T14:19:40.845Z,56.43
2023-03-20T14:24:52.231Z,57.13
2023-03-20T14:29:58.810Z,57.37
2023-03-20T14:35:27.581Z,56.92
2023-03-20T14:40:40.737Z,57.77
2023-03-20T14:45:56.032Z,59.10
2023-03-20T14:51:40.468Z,58.17
2023-03-20T14:56:47.707Z,59.63
2023-03-20T15:02:01.893Z,60.93
2023-03-20T15:07:30.057Z,61.33
2023-03-20T15:12:39.042Z,60.63
2023-03-20T15:17:48.680Z,61.17
2023-03-20T15:22:59.285Z,62.60
2023-03-20T15:28:17.968Z,62.53
2023-03-20T15:33:33.825Z,62.13
2023-03-20T15:38:41.739Z,68.70
2023-03-20T15:43:49.363Z,66.80
2023-03-20T15:48:56.284Z,65.47
2023-03-20T15:54:06.278Z,68.13
2023-03-20T15:59:17.501Z,67.60
2023-03-20T16:04:25.724Z,95.12
2023-03-20T16:09:32.627Z,65.47
2023-03-20T16:14:41.914Z,72.50
2023-03-20T16:19:48.950Z,68.47
2023-03-20T16:25:01.883Z,71.50
2023-03-20T16:30:16.683Z,66.73
2023-03-20T16:35:33.833Z,68.17
2023-03-20T16:40:40.504Z,71.47
2023-03-20T16:45:54.511Z,77.80
2023-03-20T16:51:11.806Z,82.97
2023-03-20T16:56:29.115Z,79.93
2023-03-20T17:01:35.861Z,68.30
2023-03-20T17:06:48.999Z,65.70
2023-03-20T17:12:06.397Z,71.23
2023-03-20T17:17:23.394Z,70.63
2023-03-20T17:27:39.044Z,73.95
2023-03-20T17:32:46.626Z,74.03
2023-03-20T17:37:55.309Z,76.63
2023-03-20T17:43:02.433Z,69.37
2023-03-20T17:48:18.086Z,72.63
2023-03-20T17:53:28.925Z,68.10
2023-03-20T17:58:36.540Z,70.53
2023-03-20T18:03:43.816Z,69.37
2023-03-20T18:08:50.613Z,68.90
2023-03-20T18:13:57.988Z,78.00
2023-03-20T18:19:05.134Z,71.97
2023-03-20T18:24:13.006Z,65.30
2023-03-20T18:29:20.259Z,67.47
2023-03-20T18:34:27.100Z,64.65
2023-03-20T18:39:34.900Z,65.72
2023-03-20T18:44:43.333Z,63.30
2023-03-20T18:49:51.208Z,69.93
2023-03-20T18:54:58.708Z,71.17
2023-03-20T19:00:07.229Z,67.45
2023-03-20T19:05:14.322Z,66.40
2023-03-20T19:10:42.176Z,64.07
2023-03-20T19:15:50.645Z,65.92
2023-03-20T19:21:02.735Z,67.20
2023-03-20T19:26:18.854Z,68.77
2023-03-20T19:31:26.635Z,64.13
2023-03-20T19:36:39.080Z,67.57
2023-03-20T19:41:47.146Z,64.63
2023-03-20T19:46:56.255Z,66.63
2023-03-20T19:52:05.126Z,72.47
2023-03-20T19:57:13.784Z,68.25
2023-03-20T20:02:22.198Z,68.57
2023-03-20T20:12:39.592Z,68.03
2023-03-20T20:17:48.397Z,65.33
2023-03-20T20:22:55.697Z,64.10
2023-03-20T20:28:02.875Z,69.03
2023-03-20T20:33:10.431Z,66.83
2023-03-20T20:38:40.881Z,63.28
2023-03-20T20:44:07.891Z,67.33
2023-03-20T20:48:43.078Z,66.83
2023-03-20T20:53:50.529Z,64.23
2023-03-20T20:58:58.783Z,60.87
2023-03-20T21:04:07.531Z,60.60
2023-03-20T21:09:14.267Z,60.30
2023-03-20T21:14:22.328Z,59.37
2023-03-20T21:19:36.229Z,59.57
2023-03-20T21:24:44.804Z,60.83
2023-03-20T21:29:51.752Z,60.50
2023-03-20T21:35:00.145Z,60.42
2023-03-20T21:40:09.520Z,60.50
2023-03-20T22:06:38.532Z,57.27
2023-03-20T22:11:57.162Z,56.90
2023-03-20T22:32:27.920Z,58.36
2023-03-20T22:48:25.512Z,57.73
2023-03-20T22:53:32.678Z,57.17
2023-03-20T22:58:39.629Z,56.53
2023-03-20T23:03:47.213Z,56.57
2023-03-20T23:09:02.448Z,55.27
2023-03-20T23:14:18.123Z,56.97
2023-03-20T23:19:16.139Z,56.27
2023-03-20T23:24:23.224Z,55.15
2023-03-20T23:29:30.877Z,55.80
2023-03-20T23:34:39.041Z,55.57
2023-03-20T23:39:48.576Z,56.17
2023-03-20T23:45:00.245Z,57.43
2023-03-20T23:50:06.433Z,56.93
2023-03-20T23:55:14.890Z,58.40
